createdAt,value
2018-05-25T00:00:23.198Z,32.20
2018-05-25T00:02:50.649Z,41.97
2018-05-25T00:05:18.102Z,43.17
2018-05-25T00:07:45.547Z,78.87
2018-05-25T00:10:12.996Z,48.87
2018-05-25T00:12:41.211Z,36.10
2018-05-25T00:15:08.703Z,34.27
2018-05-25T00:17:36.159Z,91.10
2018-05-25T00:20:03.631Z,89.27
2018-05-25T00:22:31.069Z,93.30
2018-05-25T00:24:58.525Z,46.57
2018-05-25T00:27:25.982Z,28.50
2018-05-25T00:29:53.438Z,28.37
2018-05-25T00:32:20.918Z,122.30
2018-05-25T00:34:48.377Z,278.30
2018-05-25T00:37:15.845Z,59.00
2018-05-25T00:39:44.064Z,191.47
2018-05-25T00:42:11.507Z,52.93
2018-05-25T00:44:38.957Z,97.83
2018-05-25T00:47:06.409Z,27.77
2018-05-25T00:49:33.845Z,331.20
2018-05-25T00:52:01.306Z,365.97
2018-05-25T00:54:29.519Z,449.07
2018-05-25T00:56:56.985Z,310.40
2018-05-25T00:59:24.429Z,309.40
2018-05-25T01:01:51.914Z,182.40
2018-05-25T01:04:19.357Z,217.50
2018-05-25T01:06:46.831Z,48.57
2018-05-25T01:09:14.285Z,36.90
2018-05-25T01:11:41.741Z,34.37
2018-05-25T01:14:09.190Z,93.20
2018-05-25T01:16:36.659Z,114.30
2018-05-25T01:19:04.113Z,94.27
2018-05-25T01:21:31.598Z,138.67
2018-05-25T01:23:59.054Z,96.67
2018-05-25T01:26:26.523Z,79.60
2018-05-25T01:28:54.742Z,66.70
2018-05-25T01:31:22.216Z,158.33
2018-05-25T01:33:49.710Z,67.87
2018-05-25T01:36:17.157Z,144.00
2018-05-25T01:38:44.618Z,136.30
2018-05-25T01:41:12.090Z,74.23
2018-05-25T01:43:40.298Z,84.30
2018-05-25T01:46:07.750Z,89.77
2018-05-25T01:48:35.205Z,73.33
2018-05-25T01:51:02.650Z,32.27
2018-05-25T01:53:30.102Z,41.43
2018-05-25T01:55:57.536Z,42.27
2018-05-25T01:58:25.015Z,86.43
2018-05-25T02:00:52.466Z,41.80
2018-05-25T02:03:20.697Z,71.63
2018-05-25T02:05:48.163Z,41.57
2018-05-25T02:08:15.633Z,53.77
2018-05-25T02:10:43.090Z,49.17
2018-05-25T02:13:10.548Z,88.57
2018-05-25T02:15:37.989Z,46.17
2018-05-25T02:18:05.454Z,124.00
2018-05-25T02:20:32.918Z,176.53
2018-05-25T02:23:00.380Z,113.47
2018-05-25T02:25:27.830Z,115.80
2018-05-25T02:27:55.290Z,117.47
2018-05-25T02:30:22.746Z,180.00
2018-05-25T02:32:50.217Z,63.87
2018-05-25T02:35:17.674Z,83.23
2018-05-25T02:37:45.125Z,37.60
2018-05-25T02:40:12.574Z,76.93
2018-05-25T02:42:40.043Z,56.23
2018-05-25T02:45:07.515Z,95.43
2018-05-25T02:47:34.953Z,40.87
2018-05-25T02:50:02.418Z,83.20
2018-05-25T02:52:29.870Z,85.37
2018-05-25T02:54:57.325Z,90.33
2018-05-25T02:57:24.783Z,43.70
2018-05-25T02:59:52.278Z,68.13
2018-05-25T03:02:19.727Z,45.10
2018-05-25T03:04:47.938Z,61.37
2018-05-25T03:07:15.393Z,68.03
2018-05-25T03:09:42.855Z,68.60
2018-05-25T03:12:10.305Z,64.90
2018-05-25T03:14:37.764Z,72.37
2018-05-25T03:17:05.256Z,54.53
2018-05-25T03:19:32.702Z,48.87
2018-05-25T03:22:00.163Z,95.23
2018-05-25T03:24:27.626Z,45.60
2018-05-25T03:26:55.094Z,44.10
2018-05-25T03:29:22.541Z,45.30
2018-05-25T03:31:49.997Z,117.43
2018-05-25T03:34:17.457Z,97.97
2018-05-25T03:36:44.915Z,109.73
2018-05-25T03:39:12.382Z,149.20
2018-05-25T03:41:39.830Z,135.97
2018-05-25T03:44:07.299Z,172.50
2018-05-25T03:46:34.742Z,113.00
2018-05-25T03:49:02.210Z,47.20
2018-05-25T03:51:29.659Z,149.13
2018-05-25T03:53:57.126Z,103.10
2018-05-25T03:56:24.574Z,52.97
2018-05-25T04:01:59.587Z,112.73
2018-05-25T04:04:27.046Z,95.07
2018-05-25T04:06:54.505Z,123.03
2018-05-25T04:09:21.969Z,189.53
2018-05-25T04:11:49.439Z,107.37
2018-05-25T04:14:16.946Z,81.43
2018-05-25T04:16:44.354Z,44.77
2018-05-25T04:19:11.821Z,50.00
2018-05-25T04:21:39.277Z,73.83
2018-05-25T04:24:06.754Z,85.67
2018-05-25T04:26:34.194Z,61.93
2018-05-25T04:29:01.650Z,45.27
2018-05-25T04:31:29.110Z,51.53
2018-05-25T04:33:56.565Z,34.80
2018-05-25T04:36:24.026Z,59.50
2018-05-25T04:38:51.481Z,117.57
2018-05-25T04:41:18.933Z,83.13
2018-05-25T04:43:46.390Z,77.07
2018-05-25T04:46:13.854Z,81.23
2018-05-25T04:48:41.325Z,65.47
2018-05-25T04:51:08.761Z,82.43
2018-05-25T04:53:36.221Z,70.57
2018-05-25T04:56:03.678Z,67.93
2018-05-25T04:58:31.135Z,67.03
2018-05-25T05:00:58.614Z,54.63
2018-05-25T05:03:26.050Z,58.27
2018-05-25T05:05:53.521Z,60.60
2018-05-25T05:08:20.964Z,47.20
2018-05-25T05:10:48.422Z,58.23
2018-05-25T05:13:15.876Z,39.63
2018-05-25T05:15:43.323Z,52.40
2018-05-25T05:18:10.778Z,77.97
2018-05-25T05:20:38.245Z,88.63
2018-05-25T05:23:05.725Z,48.30
2018-05-25T05:25:33.182Z,100.67
2018-05-25T05:28:00.619Z,197.07
2018-05-25T05:30:28.078Z,35.97
2018-05-25T05:32:55.521Z,58.87
2018-05-25T05:35:22.983Z,60.20
2018-05-25T05:37:50.445Z,258.30
2018-05-25T05:40:17.922Z,229.43
2018-05-25T05:42:45.357Z,72.33
2018-05-25T05:45:12.824Z,185.67
2018-05-25T05:47:40.273Z,156.70
2018-05-25T05:50:07.735Z,221.10
2018-05-25T05:52:35.196Z,126.67
2018-05-25T05:55:02.679Z,241.87
2018-05-25T05:57:30.131Z,101.40
2018-05-25T05:59:57.590Z,144.43
2018-05-25T06:02:25.849Z,63.80
2018-05-25T06:04:53.302Z,131.87
2018-05-25T06:07:20.759Z,156.57
2018-05-25T06:09:48.219Z,42.80
2018-05-25T06:12:15.675Z,31.23
2018-05-25T06:14:43.119Z,30.37
2018-05-25T06:17:10.577Z,23.33
2018-05-25T06:19:38.053Z,25.40
2018-05-25T06:22:05.510Z,18.57
2018-05-25T06:24:32.969Z,24.40
2018-05-25T06:27:00.446Z,29.03
2018-05-25T06:29:27.886Z,38.87
2018-05-25T06:31:55.346Z,34.03
2018-05-25T06:34:22.803Z,26.90
2018-05-25T06:36:50.259Z,26.13
2018-05-25T06:39:17.701Z,27.50
2018-05-25T06:41:45.170Z,31.70
2018-05-25T06:44:12.630Z,29.80
2018-05-25T06:46:40.090Z,25.33
2018-05-25T06:49:07.534Z,28.23
2018-05-25T06:51:34.992Z,28.03
2018-05-25T06:54:02.438Z,23.53
2018-05-25T06:56:29.897Z,23.37
2018-05-25T06:58:57.358Z,23.80
2018-05-25T07:01:24.813Z,27.50
2018-05-25T07:03:52.268Z,20.30
2018-05-25T07:06:19.732Z,21.40
2018-05-25T07:08:47.191Z,28.27
2018-05-25T07:11:14.653Z,29.77
2018-05-25T07:13:42.107Z,27.27
2018-05-25T07:16:09.574Z,22.13
2018-05-25T07:18:37.011Z,21.23
2018-05-25T07:21:04.502Z,17.97
2018-05-25T07:23:31.944Z,18.57
2018-05-25T07:25:59.393Z,15.63
2018-05-25T07:28:26.854Z,17.03
2018-05-25T07:30:54.314Z,19.60
2018-05-25T07:33:21.758Z,21.20
2018-05-25T07:35:49.212Z,16.17
2018-05-25T07:38:16.669Z,17.20
2018-05-25T07:40:44.112Z,18.43
2018-05-25T07:43:12.347Z,16.03
2018-05-25T07:45:40.574Z,15.00
2018-05-25T07:48:08.047Z,14.77
2018-05-25T07:50:35.510Z,14.17
2018-05-25T07:53:02.963Z,14.10
2018-05-25T07:55:30.417Z,14.43
2018-05-25T07:57:57.871Z,15.20
2018-05-25T08:00:25.333Z,14.60
2018-05-25T08:02:52.800Z,13.50
2018-05-25T08:05:20.241Z,14.60
2018-05-25T08:07:47.701Z,12.83
2018-05-25T08:10:15.158Z,12.63
2018-05-25T08:12:42.631Z,11.77
2018-05-25T08:15:10.069Z,13.10
2018-05-25T08:17:37.527Z,12.23
2018-05-25T08:20:04.984Z,12.80
2018-05-25T08:22:32.474Z,11.73
2018-05-25T08:25:00.694Z,13.00
2018-05-25T08:27:28.165Z,13.67
2018-05-25T08:29:55.606Z,13.47
2018-05-25T08:32:23.062Z,12.97
2018-05-25T08:34:50.523Z,12.30
2018-05-25T08:37:17.987Z,12.47
2018-05-25T08:39:45.442Z,12.17
2018-05-25T08:42:12.901Z,30.93
2018-05-25T08:44:40.367Z,13.03
2018-05-25T08:47:07.824Z,16.17
2018-05-25T08:49:35.281Z,11.07
2018-05-25T08:52:02.742Z,11.07
2018-05-25T08:54:30.191Z,13.87
2018-05-25T08:56:57.653Z,12.43
2018-05-25T08:59:25.114Z,14.00
2018-05-25T09:01:52.579Z,11.00
2018-05-25T09:04:20.026Z,10.93
2018-05-25T09:06:47.502Z,13.20
2018-05-25T09:09:14.961Z,11.43
2018-05-25T09:11:42.387Z,10.87
2018-05-25T09:14:09.851Z,10.37
2018-05-25T09:16:37.300Z,10.10
2018-05-25T09:19:04.775Z,11.23
2018-05-25T09:21:32.221Z,23.57
2018-05-25T09:23:59.670Z,12.43
2018-05-25T09:26:27.114Z,12.30
2018-05-25T09:28:54.573Z,10.37
2018-05-25T09:31:22.029Z,10.40
2018-05-25T09:33:49.501Z,11.10
2018-05-25T09:36:17.019Z,11.37
2018-05-25T09:38:44.421Z,10.47
2018-05-25T09:41:11.882Z,15.00
2018-05-25T09:43:39.343Z,9.70
2018-05-25T09:46:06.806Z,9.37
2018-05-25T09:48:34.251Z,9.30
2018-05-25T09:51:01.700Z,8.30
2018-05-25T09:53:29.154Z,11.43
2018-05-25T09:55:56.613Z,8.67
2018-05-25T09:58:24.054Z,8.70
2018-05-25T10:00:51.517Z,7.43
2018-05-25T10:03:18.970Z,7.97
2018-05-25T10:05:46.419Z,7.70
2018-05-25T10:08:13.874Z,7.63
2018-05-25T10:10:41.315Z,7.03
2018-05-25T10:13:09.537Z,6.17
2018-05-25T10:15:36.983Z,7.07
2018-05-25T10:18:04.438Z,7.30
2018-05-25T10:20:31.888Z,6.43
2018-05-25T10:22:59.356Z,7.00
2018-05-25T10:25:26.812Z,6.00
2018-05-25T10:27:54.251Z,6.73
2018-05-25T10:30:21.702Z,6.40
2018-05-25T10:32:49.156Z,5.90
2018-05-25T10:35:16.615Z,5.60
2018-05-25T10:37:44.070Z,6.17
2018-05-25T10:40:11.510Z,5.13
2018-05-25T10:42:39.727Z,4.87
2018-05-25T10:45:07.161Z,3.77
2018-05-25T10:47:34.619Z,4.27
2018-05-25T10:50:02.094Z,5.30
2018-05-25T10:52:29.530Z,4.50
2018-05-25T10:54:56.989Z,4.60
2018-05-25T10:57:24.429Z,5.10
2018-05-25T10:59:52.643Z,5.07
2018-05-25T11:02:20.100Z,5.60
2018-05-25T11:04:47.558Z,4.90
2018-05-25T11:07:15.010Z,5.10
2018-05-25T11:09:42.457Z,4.47
2018-05-25T11:12:09.905Z,5.20
2018-05-25T11:14:37.359Z,5.30
2018-05-25T11:17:04.792Z,5.00
2018-05-25T11:19:33.015Z,4.60
2018-05-25T11:22:00.472Z,6.40
2018-05-25T11:24:27.929Z,5.50
2018-05-25T11:26:55.385Z,6.20
2018-05-25T11:29:22.843Z,5.00
2018-05-25T11:31:50.285Z,4.97
2018-05-25T11:34:17.753Z,5.80
2018-05-25T11:36:45.213Z,4.63
2018-05-25T11:39:12.678Z,4.67
2018-05-25T11:41:40.114Z,4.70
2018-05-25T11:44:07.590Z,4.60
2018-05-25T11:46:35.029Z,4.30
2018-05-25T11:49:02.497Z,4.70
2018-05-25T11:51:29.960Z,5.27
2018-05-25T11:53:57.393Z,4.57
2018-05-25T11:56:24.846Z,4.97
2018-05-25T11:58:52.307Z,6.07
2018-05-25T12:01:19.761Z,6.17
2018-05-25T12:03:47.959Z,4.30
2018-05-25T12:06:15.416Z,4.77
2018-05-25T12:08:42.871Z,4.77
2018-05-25T12:11:10.314Z,4.80
2018-05-25T12:13:37.770Z,4.50
2018-05-25T12:16:05.226Z,4.30
2018-05-25T12:18:32.695Z,4.40
2018-05-25T12:21:00.153Z,4.40
2018-05-25T12:23:27.593Z,5.37
2018-05-25T12:25:55.052Z,5.53
2018-05-25T12:28:22.486Z,4.07
2018-05-25T12:30:50.702Z,4.40
2018-05-25T12:33:18.159Z,3.83
2018-05-25T12:35:45.618Z,4.30
2018-05-25T12:38:13.082Z,5.67
2018-05-25T12:40:40.529Z,4.30
2018-05-25T12:43:07.963Z,4.40
2018-05-25T12:45:36.187Z,3.70
2018-05-25T12:48:03.619Z,7.00
2018-05-25T12:50:31.078Z,4.10
2018-05-25T12:52:58.531Z,4.00
2018-05-25T12:55:25.984Z,4.23
2018-05-25T12:57:53.443Z,4.00
2018-05-25T13:00:20.897Z,3.43
2018-05-25T13:02:48.341Z,3.90
2018-05-25T13:05:16.551Z,3.80
2018-05-25T13:07:44.036Z,4.20
2018-05-25T13:10:11.457Z,5.90
2018-05-25T13:12:38.897Z,4.60
2018-05-25T13:15:06.339Z,4.83
2018-05-25T13:17:34.578Z,4.13
2018-05-25T13:20:02.035Z,4.10
2018-05-25T13:22:29.494Z,4.73
2018-05-25T13:24:56.937Z,4.13
2018-05-25T13:27:24.419Z,3.97
2018-05-25T13:29:51.866Z,4.70
2018-05-25T13:32:19.321Z,4.80
2018-05-25T13:34:46.761Z,6.73
2018-05-25T13:37:14.985Z,4.20
2018-05-25T13:39:43.195Z,4.53
2018-05-25T13:42:10.640Z,4.00
2018-05-25T13:44:38.078Z,4.60
2018-05-25T13:47:06.297Z,4.07
2018-05-25T13:49:33.730Z,4.17
2018-05-25T13:52:01.182Z,3.90
2018-05-25T13:54:28.618Z,6.07
2018-05-25T13:56:56.835Z,4.20
2018-05-25T13:59:24.289Z,3.77
2018-05-25T14:01:51.737Z,4.40
2018-05-25T14:04:19.189Z,3.90
2018-05-25T14:06:46.643Z,3.93
2018-05-25T14:09:14.076Z,3.97
2018-05-25T14:11:42.333Z,3.73
2018-05-25T14:14:09.776Z,3.57
2018-05-25T14:16:37.234Z,3.30
2018-05-25T14:19:04.734Z,4.23
2018-05-25T14:21:32.934Z,4.10
2018-05-25T14:24:00.373Z,5.37
2018-05-25T14:26:27.836Z,3.43
2018-05-25T14:28:55.286Z,3.53
2018-05-25T14:31:22.742Z,4.40
2018-05-25T14:33:50.968Z,4.73
2018-05-25T14:36:18.411Z,5.27
2018-05-25T14:38:45.880Z,5.43
2018-05-25T14:41:13.322Z,6.60
2018-05-25T14:43:40.779Z,7.93
2018-05-25T14:46:08.222Z,9.60
2018-05-25T14:48:35.677Z,7.27
2018-05-25T14:51:03.113Z,8.73
2018-05-25T14:53:30.573Z,8.97
2018-05-25T14:55:58.766Z,7.93
2018-05-25T14:58:26.221Z,8.33
2018-05-25T15:00:53.682Z,6.60
2018-05-25T15:03:21.130Z,5.63
2018-05-25T15:05:48.575Z,8.00
2018-05-25T15:08:16.038Z,7.87
2018-05-25T15:10:43.486Z,8.20
2018-05-25T15:13:11.717Z,7.70
2018-05-25T15:15:39.154Z,8.90
2018-05-25T15:18:06.593Z,7.97
2018-05-25T15:20:34.037Z,9.50
2018-05-25T15:23:01.500Z,8.57
2018-05-25T15:25:28.996Z,8.07
2018-05-25T15:27:56.404Z,8.10
2018-05-25T15:30:24.627Z,7.77
2018-05-25T15:32:52.087Z,8.03
2018-05-25T15:35:19.537Z,7.30
2018-05-25T15:37:46.980Z,7.33
2018-05-25T15:40:14.442Z,8.27
2018-05-25T15:42:41.877Z,7.03
2018-05-25T15:45:09.318Z,6.97
2018-05-25T15:47:36.822Z,7.63
2018-05-25T15:50:04.258Z,6.57
2018-05-25T15:52:31.713Z,7.63
2018-05-25T15:54:59.186Z,8.60
2018-05-25T15:57:26.643Z,8.43
2018-05-25T15:59:54.077Z,6.93
2018-05-25T16:02:21.569Z,7.30
2018-05-25T16:04:48.985Z,7.77
2018-05-25T16:07:16.437Z,7.93
2018-05-25T16:09:43.887Z,7.17
2018-05-25T16:12:12.123Z,7.33
2018-05-25T16:14:39.569Z,7.80
2018-05-25T16:17:07.124Z,7.47
2018-05-25T16:19:34.623Z,7.50
2018-05-25T16:22:02.068Z,8.30
2018-05-25T16:24:29.522Z,7.87
2018-05-25T16:26:56.959Z,7.60
2018-05-25T16:29:24.439Z,7.33
2018-05-25T16:31:51.890Z,7.10
2018-05-25T16:34:19.345Z,7.13
2018-05-25T16:36:46.806Z,7.00
2018-05-25T16:39:14.276Z,7.50
2018-05-25T16:41:41.714Z,6.77
2018-05-25T16:44:09.195Z,7.23
2018-05-25T16:46:36.630Z,7.37
2018-05-25T16:49:04.138Z,6.03
2018-05-25T16:51:31.649Z,8.17
2018-05-25T16:53:59.107Z,5.97
2018-05-25T16:56:26.563Z,6.33
2018-05-25T16:58:54.040Z,6.03
2018-05-25T17:01:21.458Z,6.60
2018-05-25T17:03:48.915Z,5.60
2018-05-25T17:06:16.370Z,6.60
2018-05-25T17:08:43.826Z,7.93
2018-05-25T17:11:11.258Z,6.97
2018-05-25T17:13:38.704Z,6.93
2018-05-25T17:16:06.150Z,7.13
2018-05-25T17:18:34.371Z,7.83
2018-05-25T17:21:01.858Z,8.00
2018-05-25T17:23:29.287Z,7.27
2018-05-25T17:25:56.740Z,7.00
2018-05-25T17:28:24.185Z,7.90
2018-05-25T17:30:51.617Z,7.90
2018-05-25T17:33:19.070Z,7.70
2018-05-25T17:35:46.524Z,6.93
2018-05-25T17:38:13.981Z,7.20
2018-05-25T17:40:41.421Z,7.43
2018-05-25T17:43:08.890Z,7.97
2018-05-25T17:45:36.342Z,7.97
2018-05-25T17:48:03.794Z,6.63
2018-05-25T17:50:31.268Z,7.03
2018-05-25T17:52:59.485Z,6.47
2018-05-25T17:55:26.941Z,6.80
2018-05-25T17:57:54.403Z,7.07
2018-05-25T18:00:21.859Z,6.97
2018-05-25T18:02:49.313Z,6.30
2018-05-25T18:05:16.770Z,7.67
2018-05-25T18:07:44.226Z,7.33
2018-05-25T18:10:11.688Z,6.83
2018-05-25T18:12:39.141Z,8.30
2018-05-25T18:15:06.599Z,7.60
2018-05-25T18:17:34.060Z,6.00
2018-05-25T18:20:01.515Z,7.90
2018-05-25T18:22:28.971Z,6.63
2018-05-25T18:24:56.449Z,6.77
2018-05-25T18:27:23.893Z,7.90
2018-05-25T18:29:51.368Z,7.10
2018-05-25T18:32:18.814Z,7.40
2018-05-25T18:34:46.270Z,7.47
2018-05-25T18:37:13.712Z,6.70
2018-05-25T18:39:41.166Z,6.93
2018-05-25T18:42:08.629Z,7.37
2018-05-25T18:44:36.082Z,7.77
2018-05-25T18:47:03.590Z,7.60
2018-05-25T18:49:31.050Z,7.43
2018-05-25T18:51:58.501Z,7.27
2018-05-25T18:54:33.568Z,7.47
2018-05-25T18:57:01.009Z,7.47
2018-05-25T18:59:28.471Z,9.77
2018-05-25T19:01:55.922Z,6.77
2018-05-25T19:04:23.382Z,7.00
2018-05-25T19:06:51.104Z,6.67
2018-05-25T19:09:18.544Z,6.77
2018-05-25T19:11:45.995Z,6.73
2018-05-25T19:14:13.450Z,7.50
2018-05-25T19:16:40.906Z,6.77
2018-05-25T19:19:08.365Z,9.10
2018-05-25T19:21:35.799Z,7.07
2018-05-25T19:24:03.255Z,6.93
2018-05-25T19:26:31.492Z,6.67
2018-05-25T19:28:58.930Z,7.13
2018-05-25T19:31:26.388Z,7.80
2018-05-25T19:33:53.834Z,8.53
2018-05-25T19:36:21.290Z,6.93
2018-05-25T19:38:48.769Z,7.90
2018-05-25T19:41:16.195Z,8.27
2018-05-25T19:43:43.649Z,9.00
2018-05-25T19:46:11.086Z,9.57
2018-05-25T19:48:38.526Z,8.93
2018-05-25T19:51:06.751Z,9.83
2018-05-25T19:53:34.193Z,8.77
2018-05-25T19:56:01.656Z,8.73
2018-05-25T19:58:29.113Z,12.07
2018-05-25T20:00:56.573Z,14.47
2018-05-25T20:03:24.022Z,11.10
2018-05-25T20:05:51.482Z,9.43
2018-05-25T20:08:18.935Z,11.27
2018-05-25T20:10:46.393Z,24.17
2018-05-25T20:13:13.848Z,12.17
2018-05-25T20:15:41.308Z,11.70
2018-05-25T20:18:08.764Z,11.47
2018-05-25T20:20:36.225Z,11.63
2018-05-25T20:23:03.678Z,9.97
2018-05-25T20:25:31.134Z,10.57
2018-05-25T20:27:58.588Z,10.57
2018-05-25T20:30:26.052Z,10.80
2018-05-25T20:32:53.489Z,10.40
2018-05-25T20:35:21.759Z,10.43
2018-05-25T20:37:49.966Z,11.50
2018-05-25T20:40:17.442Z,10.23
2018-05-25T20:42:44.889Z,10.87
2018-05-25T20:45:12.354Z,10.57
2018-05-25T20:47:39.799Z,10.40
2018-05-25T20:50:07.253Z,11.00
2018-05-25T20:52:34.717Z,11.10
2018-05-25T20:55:02.170Z,10.87
2018-05-25T20:57:29.621Z,10.67
2018-05-25T20:59:57.065Z,11.87
2018-05-25T21:02:24.535Z,14.70
2018-05-25T21:04:51.982Z,19.93
2018-05-25T21:07:19.438Z,84.53
2018-05-25T21:09:46.895Z,42.77
2018-05-25T21:12:14.358Z,14.57
2018-05-25T21:14:41.807Z,12.83
2018-05-25T21:17:10.025Z,14.53
2018-05-25T21:19:37.494Z,16.70
2018-05-25T21:22:04.943Z,14.87
2018-05-25T21:24:32.399Z,14.00
2018-05-25T21:26:59.859Z,13.83
2018-05-25T21:29:27.319Z,12.97
2018-05-25T21:31:54.783Z,13.30
2018-05-25T21:34:22.234Z,13.40
2018-05-25T21:36:49.685Z,13.57
2018-05-25T21:39:17.146Z,12.47
2018-05-25T21:41:44.603Z,11.77
2018-05-25T21:44:12.059Z,12.17
2018-05-25T21:46:39.514Z,11.70
2018-05-25T21:49:06.969Z,14.83
2018-05-25T21:51:34.430Z,12.60
2018-05-25T21:54:01.875Z,12.17
2018-05-25T21:56:29.344Z,11.87
2018-05-25T21:58:56.798Z,12.73
2018-05-25T22:01:24.260Z,12.07
2018-05-25T22:03:51.697Z,12.27
2018-05-25T22:06:19.171Z,12.23
2018-05-25T22:08:46.626Z,13.27
2018-05-25T22:11:14.085Z,12.53
2018-05-25T22:13:41.546Z,12.77
2018-05-25T22:16:08.997Z,12.83
2018-05-25T22:18:36.464Z,12.40
2018-05-25T22:21:03.918Z,11.13
2018-05-25T22:23:31.370Z,11.37
2018-05-25T22:25:58.826Z,12.30
2018-05-25T22:28:26.287Z,12.17
2018-05-25T22:30:53.744Z,12.80
2018-05-25T22:33:21.222Z,13.23
2018-05-25T22:35:48.653Z,12.93
2018-05-25T22:38:16.121Z,16.23
2018-05-25T22:40:43.570Z,15.00
2018-05-25T22:43:22.817Z,13.63
2018-05-25T22:46:02.141Z,12.00
2018-05-25T22:48:41.470Z,10.90
2018-05-25T22:51:20.740Z,11.70
2018-05-25T22:53:53.234Z,10.93
2018-05-25T22:56:20.680Z,15.17
2018-05-25T22:58:48.905Z,13.57
2018-05-25T23:01:16.370Z,14.00
2018-05-25T23:03:43.825Z,13.40
2018-05-25T23:06:11.271Z,15.50
2018-05-25T23:08:38.753Z,16.03
2018-05-25T23:11:06.202Z,18.73
2018-05-25T23:13:33.653Z,13.20
2018-05-25T23:16:01.117Z,14.07
2018-05-25T23:18:28.584Z,12.73
2018-05-25T23:20:56.030Z,11.40
2018-05-25T23:23:23.486Z,14.50
2018-05-25T23:25:50.941Z,17.93
2018-05-25T23:28:18.398Z,16.33
2018-05-25T23:30:45.854Z,16.40
2018-05-25T23:33:13.310Z,15.27
2018-05-25T23:35:40.750Z,13.30
2018-05-25T23:38:08.230Z,15.27
2018-05-25T23:40:35.689Z,15.20
2018-05-25T23:43:03.146Z,14.63
2018-05-25T23:45:30.599Z,14.30
2018-05-25T23:47:58.057Z,13.90
2018-05-25T23:50:25.509Z,16.60
2018-05-25T23:52:52.970Z,16.90
2018-05-25T23:55:20.423Z,16.50
2018-05-25T23:57:47.897Z,17.30
